createdAt,value
2022-10-10T00:01:51.315Z,8.68
2022-10-10T00:02:51.178Z,8.56
2022-10-10T00:04:54.765Z,8.56
2022-10-10T00:05:54.773Z,8.62
2022-10-10T00:07:59.289Z,8.59
2022-10-10T00:08:58.810Z,8.59
2022-10-10T00:11:02.816Z,8.55
2022-10-10T00:12:02.830Z,8.53
2022-10-10T00:15:11.301Z,8.53
2022-10-10T00:16:10.854Z,8.50
2022-10-10T00:18:14.840Z,8.50
2022-10-10T00:19:14.848Z,8.47
2022-10-10T00:21:19.332Z,8.45
2022-10-10T00:22:18.864Z,8.44
2022-10-10T00:24:22.890Z,8.45
2022-10-10T00:25:22.912Z,8.48
2022-10-10T00:27:27.388Z,8.53
2022-10-10T00:28:26.968Z,8.53
2022-10-10T00:30:30.943Z,8.48
2022-10-10T00:31:30.958Z,8.50
2022-10-10T00:33:24.429Z,8.55
2022-10-10T00:34:24.098Z,8.45
2022-10-10T00:36:28.114Z,8.48
2022-10-10T00:37:28.115Z,8.48
2022-10-10T00:39:32.611Z,8.47
2022-10-10T00:40:32.141Z,8.47
2022-10-10T00:42:25.078Z,8.48
2022-10-10T00:43:25.082Z,8.48
2022-10-10T00:45:29.567Z,8.47
2022-10-10T00:46:29.103Z,8.61
2022-10-10T00:48:33.105Z,8.53
2022-10-10T00:49:33.120Z,8.53
2022-10-10T00:51:37.606Z,8.45
2022-10-10T00:52:37.140Z,8.48
2022-10-10T00:54:41.147Z,8.50
2022-10-10T00:55:41.158Z,8.43
2022-10-10T00:57:45.650Z,8.48
2022-10-10T00:58:45.180Z,8.43
2022-10-10T01:00:49.226Z,8.40
2022-10-10T01:01:49.198Z,8.41
2022-10-10T01:03:53.685Z,8.45
2022-10-10T01:04:53.216Z,8.44
2022-10-10T01:06:57.233Z,8.45
2022-10-10T01:07:57.243Z,8.43
2022-10-10T01:10:01.733Z,8.41
2022-10-10T01:11:01.267Z,8.37
2022-10-10T01:13:05.273Z,8.33
2022-10-10T01:14:05.288Z,8.26
2022-10-10T01:17:14.266Z,8.26
2022-10-10T01:18:13.799Z,8.29
2022-10-10T01:19:13.818Z,8.34
2022-10-10T01:20:13.840Z,8.34
2022-10-10T01:21:13.859Z,8.37
2022-10-10T01:22:13.878Z,8.25
2022-10-10T01:23:13.898Z,8.34
2022-10-10T01:24:13.917Z,8.29
2022-10-10T01:25:13.940Z,8.34
2022-10-10T01:26:13.960Z,8.33
2022-10-10T01:27:13.982Z,8.25
2022-10-10T01:28:14.023Z,8.22
2022-10-10T01:29:14.019Z,8.20
2022-10-10T01:30:14.039Z,8.20
2022-10-10T01:31:14.062Z,8.18
2022-10-10T01:32:14.083Z,8.19
2022-10-10T01:33:14.102Z,8.18
2022-10-10T01:34:14.129Z,8.11
2022-10-10T01:35:14.158Z,8.10
2022-10-10T01:36:14.164Z,8.16
2022-10-10T01:37:14.185Z,8.20
2022-10-10T01:38:14.204Z,8.16
2022-10-10T01:39:14.225Z,8.10
2022-10-10T01:40:14.245Z,8.05
2022-10-10T01:41:14.269Z,8.11
2022-10-10T01:42:14.285Z,8.08
2022-10-10T01:43:14.309Z,8.16
2022-10-10T01:44:14.328Z,8.11
2022-10-10T01:45:14.348Z,8.07
2022-10-10T01:46:14.369Z,8.07
2022-10-10T01:47:14.384Z,8.16
2022-10-10T01:48:14.407Z,8.02
2022-10-10T01:49:14.432Z,8.04
2022-10-10T01:50:14.451Z,8.04
2022-10-10T01:51:14.472Z,8.02
2022-10-10T01:52:14.489Z,8.00
2022-10-10T01:53:14.517Z,7.95
2022-10-10T01:54:14.531Z,7.93
2022-10-10T01:55:14.550Z,7.90
2022-10-10T01:56:14.579Z,7.92
2022-10-10T01:57:14.593Z,7.87
2022-10-10T01:58:14.613Z,7.93
2022-10-10T01:59:14.636Z,7.87
2022-10-10T02:00:14.653Z,7.93
2022-10-10T02:01:14.701Z,7.89
2022-10-10T02:02:14.694Z,7.85
2022-10-10T02:03:14.714Z,7.83
2022-10-10T02:04:14.739Z,7.80
2022-10-10T02:05:14.757Z,7.82
2022-10-10T02:06:14.769Z,7.86
2022-10-10T02:07:14.795Z,7.71
2022-10-10T02:08:14.817Z,7.69
2022-10-10T02:09:14.838Z,7.74
2022-10-10T02:10:14.859Z,7.71
2022-10-10T02:11:14.877Z,7.74
2022-10-10T02:12:14.899Z,7.64
2022-10-10T02:13:14.919Z,7.64
2022-10-10T02:14:14.938Z,7.67
2022-10-10T02:15:22.137Z,7.75
2022-10-10T02:18:23.427Z,7.68
2022-10-10T02:19:22.954Z,7.61
2022-10-10T02:21:26.961Z,7.63
2022-10-10T02:22:26.972Z,7.69
2022-10-10T02:24:31.464Z,7.72
2022-10-10T02:25:30.990Z,7.67
2022-10-10T02:27:34.994Z,7.68
2022-10-10T02:28:35.041Z,7.67
2022-10-10T02:30:39.515Z,7.48
2022-10-10T02:31:39.040Z,7.52
2022-10-10T02:33:43.045Z,7.46
2022-10-10T02:34:43.053Z,7.53
2022-10-10T02:36:47.543Z,7.43
2022-10-10T02:37:47.082Z,7.42
2022-10-10T02:39:51.092Z,7.35
2022-10-10T02:40:51.107Z,7.27
2022-10-10T02:42:44.578Z,7.31
2022-10-10T02:43:44.049Z,7.25
2022-10-10T02:45:48.050Z,7.24
2022-10-10T02:46:48.067Z,7.27
2022-10-10T02:49:56.597Z,7.12
2022-10-10T02:50:56.248Z,7.23
2022-10-10T02:52:49.581Z,7.16
2022-10-10T02:53:49.194Z,7.07
2022-10-10T02:55:42.665Z,7.09
2022-10-10T02:56:42.331Z,7.13
2022-10-10T02:58:46.339Z,7.07
2022-10-10T02:59:46.347Z,7.09
2022-10-10T03:01:50.837Z,7.06
2022-10-10T03:02:50.716Z,6.91
2022-10-10T03:04:54.368Z,7.05
2022-10-10T03:05:54.377Z,6.97
2022-10-10T03:07:58.865Z,7.10
2022-10-10T03:08:58.398Z,7.07
2022-10-10T03:11:02.424Z,7.05
2022-10-10T03:12:02.417Z,7.05
2022-10-10T03:14:06.907Z,6.94
2022-10-10T03:15:11.251Z,7.05
2022-10-10T03:17:10.441Z,6.95
2022-10-10T03:18:10.450Z,6.94
2022-10-10T03:20:14.931Z,6.91
2022-10-10T03:21:14.465Z,7.05
2022-10-10T03:23:18.478Z,6.95
2022-10-10T03:24:18.478Z,6.94
2022-10-10T03:26:22.974Z,6.85
2022-10-10T03:27:22.495Z,6.84
2022-10-10T03:29:26.508Z,6.79
2022-10-10T03:30:26.519Z,6.74
2022-10-10T03:32:19.988Z,6.79
2022-10-10T03:33:19.461Z,6.79
2022-10-10T03:35:23.465Z,6.70
2022-10-10T03:36:23.476Z,6.66
2022-10-10T03:38:27.987Z,6.66
2022-10-10T03:39:27.498Z,6.64
2022-10-10T03:41:31.500Z,6.74
2022-10-10T03:42:31.509Z,6.69
2022-10-10T03:44:36.058Z,6.56
2022-10-10T03:45:35.714Z,6.58
2022-10-10T03:47:39.722Z,6.52
2022-10-10T03:48:39.732Z,6.58
2022-10-10T03:50:44.220Z,6.56
2022-10-10T03:51:43.743Z,6.46
2022-10-10T03:53:47.755Z,6.48
2022-10-10T03:54:47.758Z,6.55
2022-10-10T03:56:52.249Z,6.55
2022-10-10T03:57:51.778Z,6.48
2022-10-10T03:59:55.789Z,6.56
2022-10-10T04:00:55.864Z,6.46
2022-10-10T04:02:49.591Z,6.46
2022-10-10T04:03:52.107Z,6.43
2022-10-10T04:05:52.737Z,6.44
2022-10-10T04:06:52.748Z,6.34
2022-10-10T04:08:57.234Z,6.38
2022-10-10T04:09:56.775Z,6.38
2022-10-10T04:11:49.706Z,6.37
2022-10-10T04:12:49.966Z,6.40
2022-10-10T04:14:54.199Z,6.37
2022-10-10T04:15:53.728Z,6.31
2022-10-10T04:17:57.742Z,6.31
2022-10-10T04:18:57.752Z,6.36
2022-10-10T04:21:02.243Z,6.30
2022-10-10T04:22:01.770Z,6.22
2022-10-10T04:24:05.777Z,6.25
2022-10-10T04:25:05.796Z,6.18
2022-10-10T04:27:10.279Z,6.18
2022-10-10T04:28:09.863Z,6.22
2022-10-10T04:30:13.807Z,6.18
2022-10-10T04:31:13.834Z,6.21
2022-10-10T04:33:18.304Z,6.18
2022-10-10T04:34:17.838Z,6.28
2022-10-10T04:36:21.836Z,6.27
2022-10-10T04:37:21.851Z,6.25
2022-10-10T04:39:26.335Z,6.19
2022-10-10T04:40:27.047Z,6.19
2022-10-10T04:42:18.797Z,6.15
2022-10-10T04:43:18.804Z,6.19
2022-10-10T04:45:23.285Z,6.21
2022-10-10T04:46:22.821Z,6.15
2022-10-10T04:48:26.829Z,6.18
2022-10-10T04:49:26.838Z,6.17
2022-10-10T04:51:31.323Z,6.22
2022-10-10T04:52:30.855Z,6.17
2022-10-10T04:54:34.862Z,6.19
2022-10-10T04:55:34.872Z,6.21
2022-10-10T04:57:39.358Z,6.34
2022-10-10T04:58:38.890Z,6.31
2022-10-10T05:00:42.897Z,6.34
2022-10-10T05:01:42.960Z,6.41
2022-10-10T05:03:47.395Z,6.40
2022-10-10T05:04:46.922Z,6.43
2022-10-10T05:06:50.926Z,6.52
2022-10-10T05:07:55.343Z,6.51
2022-10-10T05:09:55.446Z,6.48
2022-10-10T05:10:54.950Z,6.48
2022-10-10T05:12:48.098Z,6.58
2022-10-10T05:13:47.894Z,6.61
2022-10-10T05:15:52.388Z,6.58
2022-10-10T05:16:51.910Z,6.54
2022-10-10T05:18:55.915Z,6.61
2022-10-10T05:19:55.929Z,6.59
2022-10-10T05:21:49.400Z,6.59
2022-10-10T05:22:49.171Z,6.61
2022-10-10T05:24:52.868Z,6.52
2022-10-10T05:25:52.881Z,6.64
2022-10-10T05:27:57.365Z,6.58
2022-10-10T05:28:56.894Z,6.67
2022-10-10T05:31:00.901Z,6.67
2022-10-10T05:32:00.908Z,6.61
2022-10-10T05:34:05.394Z,6.58
2022-10-10T05:35:04.920Z,6.70
2022-10-10T05:37:08.922Z,6.73
2022-10-10T05:38:08.939Z,6.73
2022-10-10T05:40:13.421Z,6.67
2022-10-10T05:41:12.953Z,6.66
2022-10-10T05:43:16.954Z,6.66
2022-10-10T05:44:16.960Z,6.69
2022-10-10T05:46:21.452Z,6.61
2022-10-10T05:47:25.356Z,6.69
2022-10-10T05:49:24.997Z,6.70
2022-10-10T05:50:25.005Z,6.71
2022-10-10T05:52:18.478Z,6.77
2022-10-10T05:53:17.943Z,6.70
2022-10-10T05:55:21.965Z,6.77
2022-10-10T05:56:21.960Z,6.88
2022-10-10T05:58:26.447Z,6.94
2022-10-10T05:59:25.977Z,6.97
2022-10-10T06:01:29.977Z,6.95
2022-10-10T06:02:30.016Z,7.02
2022-10-10T06:04:34.473Z,6.94
2022-10-10T06:05:34.007Z,7.06
2022-10-10T06:07:59.860Z,7.09
2022-10-10T06:08:38.019Z,7.09
2022-10-10T06:10:42.508Z,7.10
2022-10-10T06:11:42.034Z,7.16
2022-10-10T06:13:34.975Z,7.17
2022-10-10T06:14:34.982Z,7.17
2022-10-10T06:16:39.477Z,7.24
2022-10-10T06:17:39.001Z,7.28
2022-10-10T06:19:43.004Z,7.39
2022-10-10T06:20:43.016Z,7.40
2022-10-10T06:22:36.489Z,7.42
2022-10-10T06:23:35.955Z,7.50
2022-10-10T06:25:41.578Z,7.64
2022-10-10T06:26:39.970Z,7.60
2022-10-10T06:28:33.491Z,7.67
2022-10-10T06:29:33.108Z,7.61
2022-10-10T06:31:37.126Z,7.80
2022-10-10T06:32:37.136Z,7.68
2022-10-10T06:34:41.619Z,7.64
2022-10-10T06:35:41.150Z,7.83
2022-10-10T06:37:45.153Z,8.00
2022-10-10T06:38:45.165Z,8.00
2022-10-10T06:40:49.663Z,8.10
2022-10-10T06:41:49.187Z,8.15
2022-10-10T06:43:53.187Z,8.19
2022-10-10T06:44:53.202Z,8.30
2022-10-10T06:46:57.687Z,8.34
2022-10-10T06:47:57.221Z,8.44
2022-10-10T06:50:01.217Z,8.52
2022-10-10T06:51:01.229Z,8.58
2022-10-10T06:53:05.719Z,8.59
2022-10-10T06:54:05.258Z,8.77
2022-10-10T06:56:09.263Z,8.83
2022-10-10T06:57:09.274Z,8.91
2022-10-10T06:59:13.757Z,8.94
2022-10-10T07:00:13.291Z,8.95
2022-10-10T07:02:06.219Z,8.96
2022-10-10T07:03:06.230Z,9.01
2022-10-10T07:05:10.727Z,9.05
2022-10-10T07:06:10.245Z,9.02
2022-10-10T07:08:14.252Z,9.20
2022-10-10T07:09:14.260Z,9.26
2022-10-10T07:11:18.748Z,9.47
2022-10-10T07:12:18.288Z,9.39
2022-10-10T07:14:22.295Z,9.48
2022-10-10T07:15:22.306Z,9.51
2022-10-10T07:17:26.801Z,9.60
2022-10-10T07:18:26.327Z,9.54
2022-10-10T07:20:19.466Z,9.64
2022-10-10T07:21:19.472Z,9.72
2022-10-10T07:23:23.961Z,9.78
2022-10-10T07:24:23.492Z,9.78
2022-10-10T07:26:27.502Z,9.89
2022-10-10T07:27:27.510Z,9.97
2022-10-10T07:29:20.986Z,9.96
2022-10-10T07:30:20.654Z,9.94
2022-10-10T07:32:13.598Z,10.02
2022-10-10T07:33:13.604Z,10.11
2022-10-10T07:35:18.091Z,10.18
2022-10-10T07:36:17.632Z,10.15
2022-10-10T07:38:21.654Z,10.29
2022-10-10T07:39:21.712Z,10.29
2022-10-10T07:41:26.153Z,10.38
2022-10-10T07:42:25.686Z,10.52
2022-10-10T07:44:34.241Z,10.63
2022-10-10T07:45:29.703Z,10.61
2022-10-10T07:47:34.194Z,10.70
2022-10-10T07:48:33.726Z,10.74
2022-10-10T07:50:37.731Z,10.89
2022-10-10T07:51:37.745Z,10.96
2022-10-10T07:53:42.241Z,11.09
2022-10-10T07:54:41.761Z,11.18
2022-10-10T07:56:45.768Z,11.22
2022-10-10T07:57:47.864Z,11.33
2022-10-10T07:59:50.273Z,11.49
2022-10-10T08:00:49.808Z,11.55
2022-10-10T08:02:42.738Z,11.49
2022-10-10T08:03:42.753Z,11.67
2022-10-10T08:05:47.268Z,11.76
2022-10-10T08:06:46.779Z,11.86
2022-10-10T08:08:52.138Z,12.10
2022-10-10T08:09:50.795Z,12.13
2022-10-10T08:11:44.275Z,12.24
2022-10-10T08:12:43.941Z,12.27
2022-10-10T08:14:47.951Z,12.46
2022-10-10T08:15:47.966Z,12.49
2022-10-10T08:17:54.284Z,12.62
2022-10-10T08:18:51.995Z,12.62
2022-10-10T08:20:56.024Z,12.65
2022-10-10T08:21:56.061Z,12.79
2022-10-10T08:22:56.047Z,12.83
2022-10-10T08:23:56.067Z,12.89
2022-10-10T08:24:56.088Z,12.93
2022-10-10T08:25:56.109Z,13.10
2022-10-10T08:26:56.151Z,13.04
2022-10-10T08:27:56.156Z,13.12
2022-10-10T08:28:56.181Z,13.28
2022-10-10T08:29:56.200Z,13.32
2022-10-10T08:30:56.226Z,13.39
2022-10-10T08:31:56.251Z,13.33
2022-10-10T08:32:56.269Z,13.55
2022-10-10T08:33:56.290Z,13.59
2022-10-10T08:34:56.318Z,13.66
2022-10-10T08:35:56.340Z,13.69
2022-10-10T08:36:56.359Z,13.77
2022-10-10T08:37:56.384Z,13.82
2022-10-10T08:38:56.407Z,13.91
2022-10-10T08:39:56.432Z,14.02
2022-10-10T08:40:56.452Z,14.04
2022-10-10T08:41:56.477Z,14.02
2022-10-10T08:42:56.770Z,14.07
2022-10-10T08:43:56.522Z,14.15
2022-10-10T08:44:56.549Z,14.14
2022-10-10T08:45:56.586Z,14.21
2022-10-10T08:46:56.595Z,14.27
2022-10-10T08:47:56.618Z,14.40
2022-10-10T08:48:56.638Z,14.37
2022-10-10T08:49:56.665Z,14.37
2022-10-10T08:50:56.687Z,14.46
2022-10-10T08:51:56.713Z,14.50
2022-10-10T08:52:56.737Z,14.62
2022-10-10T08:53:56.757Z,14.70
2022-10-10T08:54:58.593Z,14.78
2022-10-10T08:55:56.805Z,14.78
2022-10-10T08:56:56.829Z,14.86
2022-10-10T08:57:56.867Z,14.94
2022-10-10T08:58:56.877Z,14.95
2022-10-10T08:59:56.903Z,15.09
2022-10-10T09:00:56.944Z,15.09
2022-10-10T09:02:17.707Z,15.19
2022-10-10T09:02:57.289Z,15.23
2022-10-10T09:03:56.998Z,15.17
2022-10-10T09:04:57.026Z,15.21
2022-10-10T09:05:57.047Z,15.31
2022-10-10T09:06:57.071Z,15.31
2022-10-10T09:07:57.093Z,15.38
2022-10-10T09:08:57.116Z,15.41
2022-10-10T09:09:57.141Z,15.41
2022-10-10T09:10:57.445Z,15.47
2022-10-10T09:11:57.188Z,15.50
2022-10-10T09:12:57.221Z,15.54
2022-10-10T09:13:57.236Z,15.67
2022-10-10T09:15:01.938Z,15.59
2022-10-10T09:15:57.286Z,15.74
2022-10-10T09:16:57.310Z,15.83
2022-10-10T09:17:57.333Z,15.84
2022-10-10T09:18:57.362Z,15.84
2022-10-10T09:19:57.386Z,15.87
2022-10-10T09:20:57.613Z,15.92
2022-10-10T09:21:57.451Z,15.97
2022-10-10T09:22:57.449Z,15.94
2022-10-10T09:23:57.481Z,16.00
2022-10-10T09:24:57.505Z,16.05
2022-10-10T09:25:57.530Z,16.12
2022-10-10T09:26:57.555Z,16.12
2022-10-10T09:27:57.578Z,16.21
2022-10-10T09:28:57.606Z,16.24
2022-10-10T09:29:57.628Z,16.17
2022-10-10T09:30:57.954Z,16.24
2022-10-10T09:31:57.690Z,16.12
2022-10-10T09:32:57.697Z,16.11
2022-10-10T09:33:57.727Z,16.17
2022-10-10T09:34:57.868Z,16.15
2022-10-10T09:35:57.773Z,16.15
2022-10-10T09:36:59.483Z,16.27
2022-10-10T09:37:57.824Z,16.27
2022-10-10T09:38:57.847Z,16.21
2022-10-10T09:39:57.871Z,16.15
2022-10-10T09:40:58.152Z,16.33
2022-10-10T09:41:57.921Z,16.39
2022-10-10T09:42:57.957Z,16.34
2022-10-10T09:43:57.970Z,16.41
2022-10-10T09:44:57.994Z,16.48
2022-10-10T09:45:58.020Z,16.43
2022-10-10T09:46:58.046Z,16.43
2022-10-10T09:47:58.071Z,16.48
2022-10-10T09:48:58.091Z,16.45
2022-10-10T09:49:58.167Z,16.56
2022-10-10T09:50:58.347Z,16.48
2022-10-10T09:51:58.167Z,16.46
2022-10-10T09:52:58.195Z,16.43
2022-10-10T09:53:58.217Z,16.46
2022-10-10T09:54:58.254Z,16.50
2022-10-10T09:55:58.266Z,16.57
2022-10-10T09:56:58.296Z,16.56
2022-10-10T09:57:58.318Z,16.50
2022-10-10T09:58:58.343Z,16.61
2022-10-10T10:00:02.407Z,16.71
2022-10-10T10:00:58.769Z,16.60
2022-10-10T10:01:58.412Z,16.78
2022-10-10T10:02:58.440Z,16.83
2022-10-10T10:04:11.158Z,16.82
2022-10-10T10:04:58.490Z,16.85
2022-10-10T10:05:58.515Z,16.89
2022-10-10T10:07:05.718Z,16.98
2022-10-10T10:09:03.062Z,16.98
2022-10-10T10:10:02.567Z,17.04
2022-10-10T10:11:55.516Z,17.00
2022-10-10T10:12:55.534Z,17.08
2022-10-10T10:15:00.028Z,17.19
2022-10-10T10:15:59.584Z,17.23
2022-10-10T10:17:52.733Z,17.26
2022-10-10T10:18:52.747Z,17.31
2022-10-10T10:20:58.124Z,17.44
2022-10-10T10:21:56.798Z,17.41
2022-10-10T10:24:00.876Z,17.44
2022-10-10T10:25:00.832Z,17.55
2022-10-10T10:27:05.318Z,17.71
2022-10-10T10:28:05.022Z,17.74
2022-10-10T10:30:08.901Z,17.81
2022-10-10T10:31:08.916Z,17.90
2022-10-10T10:33:13.416Z,18.05
2022-10-10T10:34:12.953Z,18.10
2022-10-10T10:36:16.977Z,18.15
2022-10-10T10:37:16.991Z,18.18
2022-10-10T10:39:21.494Z,18.12
2022-10-10T10:40:21.029Z,18.17
2022-10-10T10:42:13.981Z,18.18
2022-10-10T10:43:13.989Z,18.23
2022-10-10T10:45:18.504Z,18.30
2022-10-10T10:46:18.030Z,18.35
2022-10-10T10:48:22.054Z,18.33
2022-10-10T10:49:25.391Z,18.32
2022-10-10T10:51:26.561Z,18.48
2022-10-10T10:52:26.101Z,18.44
2022-10-10T10:54:30.119Z,18.45
2022-10-10T10:55:32.903Z,18.51
2022-10-10T10:57:45.480Z,18.55
2022-10-10T10:59:09.927Z,18.51
2022-10-10T11:01:55.841Z,18.58
2022-10-10T11:05:20.536Z,18.78
2022-10-10T11:05:23.665Z,18.87
2022-10-10T11:07:00.002Z,18.82
2022-10-10T11:07:46.380Z,18.82
2022-10-10T11:09:51.095Z,18.92
2022-10-10T11:10:50.327Z,19.02
2022-10-10T11:12:43.264Z,18.95
2022-10-10T11:13:43.289Z,19.06
2022-10-10T11:16:04.778Z,19.13
2022-10-10T11:16:48.830Z,19.11
2022-10-10T11:18:51.335Z,19.11
2022-10-10T11:19:51.359Z,19.23
2022-10-10T11:21:55.853Z,19.23
2022-10-10T11:22:55.395Z,19.31
2022-10-10T11:24:59.416Z,19.28
2022-10-10T11:25:59.436Z,19.26
2022-10-10T11:28:03.946Z,19.36
2022-10-10T11:29:03.595Z,19.40
2022-10-10T11:31:07.511Z,19.46
2022-10-10T11:32:07.598Z,19.40
2022-10-10T11:34:12.105Z,19.39
2022-10-10T11:35:11.763Z,19.41
2022-10-10T11:37:15.785Z,19.41
2022-10-10T11:38:15.815Z,19.48
2022-10-10T11:40:20.303Z,19.48
2022-10-10T11:41:19.845Z,19.37
2022-10-10T11:43:23.871Z,19.50
2022-10-10T11:44:23.887Z,19.31
2022-10-10T11:46:28.381Z,19.32
2022-10-10T11:47:27.933Z,19.28
2022-10-10T11:49:31.952Z,19.32
2022-10-10T11:50:31.971Z,19.36
2022-10-10T11:51:31.999Z,19.46
2022-10-10T11:52:34.628Z,19.39
2022-10-10T11:53:32.051Z,19.50
2022-10-10T11:54:32.084Z,19.55
2022-10-10T11:55:32.158Z,19.69
2022-10-10T11:56:32.136Z,19.73
2022-10-10T11:57:32.159Z,19.68
2022-10-10T11:58:32.201Z,19.81
2022-10-10T11:59:32.234Z,19.88
2022-10-10T12:00:32.242Z,19.88
2022-10-10T12:01:32.264Z,19.95
2022-10-10T12:02:32.311Z,19.84
2022-10-10T12:03:32.325Z,19.86
2022-10-10T12:04:32.354Z,19.87
2022-10-10T12:05:32.376Z,19.83
2022-10-10T12:06:32.410Z,19.83
2022-10-10T12:07:32.438Z,19.83
2022-10-10T12:08:32.462Z,19.78
2022-10-10T12:09:32.528Z,19.80
2022-10-10T12:10:32.514Z,19.87
2022-10-10T12:11:32.545Z,19.80
2022-10-10T12:12:32.571Z,19.87
2022-10-10T12:13:32.594Z,19.80
2022-10-10T12:14:32.627Z,19.71
2022-10-10T12:15:35.197Z,19.76
2022-10-10T12:16:32.677Z,19.69
2022-10-10T12:17:32.705Z,19.68
2022-10-10T12:18:32.733Z,19.73
2022-10-10T12:19:32.765Z,19.66
2022-10-10T12:20:32.790Z,19.71
2022-10-10T12:21:32.814Z,19.74
2022-10-10T12:22:32.851Z,19.81
2022-10-10T12:23:32.871Z,19.86
2022-10-10T12:24:32.899Z,19.87
2022-10-10T12:25:32.931Z,19.88
2022-10-10T12:26:32.954Z,19.94
2022-10-10T12:27:32.992Z,19.91
2022-10-10T12:28:33.043Z,19.94
2022-10-10T12:29:33.039Z,19.95
2022-10-10T12:30:33.062Z,20.01
2022-10-10T12:31:33.091Z,19.98
2022-10-10T12:32:33.121Z,19.98
2022-10-10T12:33:33.170Z,20.01
2022-10-10T12:34:33.177Z,20.01
2022-10-10T12:35:33.200Z,19.98
2022-10-10T12:36:33.233Z,20.05
2022-10-10T12:37:33.258Z,20.13
2022-10-10T12:38:33.314Z,20.13
2022-10-10T12:39:33.318Z,20.11
2022-10-10T12:40:33.340Z,20.23
2022-10-10T12:41:33.367Z,20.11
2022-10-10T12:42:33.401Z,20.18
2022-10-10T12:43:33.428Z,20.16
2022-10-10T12:44:33.452Z,20.18
2022-10-10T12:45:33.476Z,20.13
2022-10-10T12:46:33.510Z,20.16
2022-10-10T12:47:53.021Z,20.17
2022-10-10T12:48:33.569Z,20.13
2022-10-10T12:49:33.589Z,20.24
2022-10-10T12:50:33.627Z,20.26
2022-10-10T12:51:33.648Z,20.20
2022-10-10T12:52:33.672Z,20.21
2022-10-10T12:53:33.703Z,20.29
2022-10-10T12:54:33.729Z,20.14
2022-10-10T12:55:33.762Z,20.18
2022-10-10T12:56:33.789Z,20.29
2022-10-10T12:57:33.822Z,20.29
2022-10-10T12:58:33.845Z,20.35
2022-10-10T12:59:33.877Z,20.31
2022-10-10T13:00:33.911Z,20.39
2022-10-10T13:01:33.968Z,20.33
2022-10-10T13:02:33.966Z,20.36
2022-10-10T13:03:33.987Z,20.41
2022-10-10T13:04:34.015Z,20.43
2022-10-10T13:05:34.041Z,20.33
2022-10-10T13:06:34.069Z,20.47
2022-10-10T13:07:34.104Z,20.48
2022-10-10T13:08:34.131Z,20.48
2022-10-10T13:09:35.564Z,20.42
2022-10-10T13:10:34.180Z,20.42
2022-10-10T13:11:34.212Z,20.48
2022-10-10T13:12:34.244Z,20.52
2022-10-10T13:13:34.279Z,20.58
2022-10-10T13:14:34.298Z,20.42
2022-10-10T13:15:34.350Z,20.48
2022-10-10T13:16:34.371Z,20.50
2022-10-10T13:17:34.382Z,20.54
2022-10-10T13:18:34.416Z,20.54
2022-10-10T13:19:34.432Z,20.57
2022-10-10T13:20:34.467Z,20.70
2022-10-10T13:21:34.495Z,20.74
2022-10-10T13:22:34.527Z,20.88
2022-10-10T13:23:34.558Z,20.88
2022-10-10T13:24:34.581Z,20.89
2022-10-10T13:25:34.612Z,20.89
2022-10-10T13:26:34.644Z,20.85
2022-10-10T13:27:34.666Z,20.84
2022-10-10T13:28:34.761Z,20.85
2022-10-10T13:29:34.719Z,20.92
2022-10-10T13:30:34.750Z,20.87
2022-10-10T13:31:34.815Z,20.89
2022-10-10T13:32:34.807Z,20.89
2022-10-10T13:33:34.834Z,20.99
2022-10-10T13:34:34.865Z,20.92
2022-10-10T13:35:34.911Z,20.89
2022-10-10T13:36:34.923Z,20.84
2022-10-10T13:37:34.950Z,20.70
2022-10-10T13:38:34.978Z,20.74
2022-10-10T13:39:35.050Z,20.70
2022-10-10T13:40:35.041Z,20.70
2022-10-10T13:41:35.062Z,20.70
2022-10-10T13:42:35.092Z,20.70
2022-10-10T13:43:35.120Z,20.73
2022-10-10T13:44:35.145Z,20.58
2022-10-10T13:45:35.177Z,20.59
2022-10-10T13:46:35.216Z,20.55
2022-10-10T13:47:35.243Z,20.55
2022-10-10T13:48:35.293Z,20.66
2022-10-10T13:49:35.353Z,20.66
2022-10-10T13:50:35.324Z,20.58
2022-10-10T13:51:35.347Z,20.57
2022-10-10T13:52:35.371Z,20.61
2022-10-10T13:53:35.402Z,20.51
2022-10-10T13:54:35.438Z,20.50
2022-10-10T13:55:35.458Z,20.43
2022-10-10T13:56:35.497Z,20.47
2022-10-10T13:57:35.528Z,20.31
2022-10-10T13:58:35.545Z,20.29
2022-10-10T13:59:35.578Z,20.28
2022-10-10T14:00:35.609Z,20.18
2022-10-10T14:01:35.708Z,20.23
2022-10-10T14:02:35.659Z,20.08
2022-10-10T14:03:35.688Z,20.17
2022-10-10T14:04:35.712Z,20.10
2022-10-10T14:05:35.742Z,20.13
2022-10-10T14:06:35.779Z,20.03
2022-10-10T14:07:35.798Z,20.14
2022-10-10T14:08:35.830Z,20.13
2022-10-10T14:09:35.854Z,20.08
2022-10-10T14:10:35.887Z,20.16
2022-10-10T14:11:35.913Z,20.14
2022-10-10T14:12:35.937Z,20.11
2022-10-10T14:13:35.965Z,20.14
2022-10-10T14:14:36.005Z,20.17
2022-10-10T14:15:36.028Z,20.08
2022-10-10T14:16:36.052Z,20.08
2022-10-10T14:17:36.078Z,20.05
2022-10-10T14:18:36.111Z,20.05
2022-10-10T14:19:36.208Z,19.96
2022-10-10T14:20:36.165Z,20.02
2022-10-10T14:21:36.193Z,20.05
2022-10-10T14:22:36.231Z,20.02
2022-10-10T14:23:36.248Z,19.99
2022-10-10T14:24:36.277Z,20.03
2022-10-10T14:25:36.305Z,20.06
2022-10-10T14:26:36.332Z,20.11
2022-10-10T14:27:37.209Z,20.08
2022-10-10T14:28:36.457Z,20.10
2022-10-10T14:29:36.415Z,20.14
2022-10-10T14:30:36.442Z,20.14
2022-10-10T14:31:36.476Z,20.06
2022-10-10T14:32:36.498Z,20.06
2022-10-10T14:33:36.530Z,19.96
2022-10-10T14:34:36.555Z,20.03
2022-10-10T14:35:36.587Z,19.87
2022-10-10T14:36:36.614Z,19.81
2022-10-10T14:37:36.660Z,19.76
2022-10-10T14:38:36.674Z,19.77
2022-10-10T14:39:36.697Z,19.86
2022-10-10T14:40:36.723Z,19.83
2022-10-10T14:41:36.751Z,19.87
2022-10-10T14:42:36.787Z,19.77
2022-10-10T14:43:36.808Z,19.71
2022-10-10T14:44:36.836Z,19.69
2022-10-10T14:45:36.863Z,19.66
2022-10-10T14:46:36.892Z,19.54
2022-10-10T14:47:36.919Z,19.58
2022-10-10T14:48:36.947Z,19.58
2022-10-10T14:49:36.973Z,19.58
2022-10-10T14:50:37.001Z,19.58
2022-10-10T14:51:37.028Z,19.58
2022-10-10T14:52:37.062Z,19.56
2022-10-10T14:53:37.086Z,19.50
2022-10-10T14:54:37.112Z,19.50
2022-10-10T14:55:37.141Z,19.54
2022-10-10T14:57:07.774Z,19.46
2022-10-10T14:57:37.192Z,19.50
2022-10-10T14:58:37.226Z,19.47
2022-10-10T14:59:48.763Z,19.50
2022-10-10T15:00:37.280Z,19.51
2022-10-10T15:01:37.306Z,19.55
2022-10-10T15:02:40.815Z,19.54
2022-10-10T15:03:37.419Z,19.55
2022-10-10T15:04:37.390Z,19.55
2022-10-10T15:05:37.418Z,19.39
2022-10-10T15:06:50.153Z,19.41
2022-10-10T15:07:37.472Z,19.44
2022-10-10T15:08:37.511Z,19.32
2022-10-10T15:09:43.044Z,19.47
2022-10-10T15:10:37.555Z,19.44
2022-10-10T15:11:37.585Z,19.39
2022-10-10T15:12:37.613Z,19.37
2022-10-10T15:13:37.635Z,19.33
2022-10-10T15:14:37.665Z,19.37
2022-10-10T15:15:37.695Z,19.39
2022-10-10T15:16:37.787Z,19.28
2022-10-10T15:17:37.746Z,19.33
2022-10-10T15:18:53.709Z,19.21
2022-10-10T15:19:37.801Z,19.26
2022-10-10T15:20:37.832Z,19.21
2022-10-10T15:21:37.858Z,19.10
2022-10-10T15:22:37.883Z,19.16
2022-10-10T15:23:37.918Z,19.13
2022-10-10T15:24:37.937Z,19.07
2022-10-10T15:25:37.967Z,19.08
2022-10-10T15:26:37.993Z,19.07
2022-10-10T15:27:38.018Z,19.04
2022-10-10T15:28:38.075Z,18.99
2022-10-10T15:29:38.074Z,19.00
2022-10-10T15:30:42.787Z,18.98
2022-10-10T15:31:38.133Z,18.94
2022-10-10T15:32:38.154Z,18.98
2022-10-10T15:33:38.180Z,18.87
2022-10-10T15:34:38.211Z,18.94
2022-10-10T15:36:03.910Z,18.82
2022-10-10T15:36:38.268Z,18.84
2022-10-10T15:37:38.290Z,18.90
2022-10-10T15:38:38.316Z,18.84
2022-10-10T15:39:38.345Z,18.95
2022-10-10T15:40:38.372Z,18.84
2022-10-10T15:41:38.404Z,18.84
2022-10-10T15:42:38.426Z,18.81
2022-10-10T15:43:38.452Z,18.90
2022-10-10T15:44:38.479Z,18.81
2022-10-10T15:45:54.987Z,18.80
2022-10-10T15:46:38.537Z,18.84
2022-10-10T15:47:41.796Z,18.65
2022-10-10T15:48:38.588Z,18.62
2022-10-10T15:49:38.613Z,18.55
2022-10-10T15:50:38.642Z,18.50
2022-10-10T15:51:38.675Z,18.44
2022-10-10T15:52:38.695Z,18.37
2022-10-10T15:53:38.722Z,18.42
2022-10-10T15:54:38.747Z,18.17
2022-10-10T15:55:38.777Z,18.23
2022-10-10T15:56:38.803Z,18.18
2022-10-10T15:57:38.828Z,18.15
2022-10-10T15:58:38.854Z,18.12
2022-10-10T15:59:41.859Z,18.10
2022-10-10T16:00:38.977Z,18.08
2022-10-10T16:01:38.941Z,18.02
2022-10-10T16:02:38.963Z,17.96
2022-10-10T16:03:38.997Z,17.96
2022-10-10T16:04:39.011Z,18.00
2022-10-10T16:05:39.068Z,17.96
2022-10-10T16:06:39.066Z,17.90
2022-10-10T16:07:48.218Z,17.87
2022-10-10T16:08:39.120Z,17.90
2022-10-10T16:09:39.151Z,17.84
2022-10-10T16:10:39.170Z,17.78
2022-10-10T16:11:39.199Z,17.77
2022-10-10T16:12:39.227Z,17.74
2022-10-10T16:13:39.255Z,17.79
2022-10-10T16:14:39.284Z,17.77